Time;durP1;ratioP1;P1;durP2;ratioP2;P2;SDS_P1;SDS_P2;PMS_P1;PMS_P2;Temp;Humidity;BMP_temperature;BMP_pressure;BME280_temperature;BME280_humidity;BME280_pressure;Samples;Min_cycle;Max_cycle;Signal;HPM_P1;HPM_P2
2021/09/26 00:00:59;;;;;;;12.20;7.90;;;17.10;68.10;;;;;;6277621;22;20090;-89
2021/09/26 00:06:47;;;;;;;11.63;8.00;;;17.10;68.40;;;;;;6277370;22;20007;-88
2021/09/26 00:12:36;;;;;;;12.60;7.80;;;17.10;68.60;;;;;;6277313;22;20015;-88
2021/09/26 00:18:25;;;;;;;11.63;8.40;;;17.10;68.80;;;;;;6277163;22;20090;-89
2021/09/26 00:24:14;;;;;;;12.68;8.20;;;17.10;69.00;;;;;;6277195;22;20011;-89
2021/09/26 00:30:05;;;;;;;12.95;8.23;;;17.20;69.20;;;;;;6277133;22;20444;-89
2021/09/26 00:35:54;;;;;;;11.50;7.95;;;17.20;69.30;;;;;;6277417;22;20023;-89
2021/09/26 00:41:43;;;;;;;11.45;7.97;;;17.30;69.60;;;;;;6279051;22;20011;-89
2021/09/26 00:47:31;;;;;;;10.98;8.07;;;17.40;69.70;;;;;;6279182;22;20092;-89
2021/09/26 00:53:20;;;;;;;11.73;8.10;;;17.40;69.60;;;;;;6279244;22;20057;-89
2021/09/26 01:03:03;;;;;;;12.30;7.82;;;17.40;69.70;;;;;;6278989;22;20110;-88
2021/09/26 01:09:02;;;;;;;12.15;7.90;;;17.40;69.70;;;;;;6278980;22;20007;-89
2021/09/26 01:15:15;;;;;;;10.85;8.07;;;17.40;69.70;;;;;;6278933;22;20022;-89
2021/09/26 01:21:29;;;;;;;11.10;7.85;;;17.30;70.00;;;;;;6279008;22;20061;-89
2021/09/26 01:27:54;;;;;;;11.50;8.52;;;17.30;70.00;;;;;;6279025;22;20033;-89
2021/09/26 01:33:52;;;;;;;13.15;8.73;;;17.40;70.40;;;;;;6278783;22;20432;-89
2021/09/26 01:39:58;;;;;;;12.20;8.68;;;17.40;70.60;;;;;;6278722;22;20524;-89
2021/09/26 01:45:51;;;;;;;11.68;8.10;;;17.50;70.70;;;;;;6278632;22;20007;-88
2021/09/26 01:51:42;;;;;;;11.48;8.32;;;17.50;70.80;;;;;;6278382;22;20050;-89
2021/09/26 01:57:32;;;;;;;11.32;8.00;;;17.60;70.80;;;;;;6278480;22;20077;-90
2021/09/26 02:03:22;;;;;;;13.05;8.70;;;17.60;70.70;;;;;;6278548;22;20452;-91
2021/09/26 02:09:13;;;;;;;13.40;8.60;;;17.60;70.80;;;;;;6278432;22;20087;-90
2021/09/26 02:15:09;;;;;;;11.82;8.38;;;17.60;70.80;;;;;;6278397;22;20102;-90
2021/09/26 02:20:59;;;;;;;12.93;7.78;;;17.70;70.90;;;;;;6278706;22;20330;-90
2021/09/26 02:26:47;;;;;;;12.25;7.88;;;17.70;70.70;;;;;;6278411;22;20053;-90
2021/09/26 02:32:37;;;;;;;11.20;7.78;;;17.60;70.60;;;;;;6278299;22;20503;-90
2021/09/26 02:38:25;;;;;;;10.90;7.30;;;17.60;70.50;;;;;;6278179;22;20511;-89
2021/09/26 02:44:27;;;;;;;11.23;7.88;;;17.50;70.50;;;;;;6278206;22;20103;-90
2021/09/26 02:50:19;;;;;;;12.25;7.70;;;17.40;70.70;;;;;;6278345;22;20337;-90
2021/09/26 02:56:08;;;;;;;11.45;7.80;;;17.30;70.80;;;;;;6278019;22;20023;-90
2021/09/26 03:05:59;;;;;;;11.02;8.02;;;17.30;71.20;;;;;;6278090;22;20446;-90
2021/09/26 03:11:48;;;;;;;12.60;7.85;;;17.30;71.20;;;;;;6278180;22;20015;-92
2021/09/26 03:17:36;;;;;;;11.90;7.90;;;17.20;71.40;;;;;;6277885;22;20014;-91
2021/09/26 03:23:25;;;;;;;11.98;8.02;;;17.30;71.90;;;;;;6277791;22;20060;-89
2021/09/26 03:29:14;;;;;;;13.40;7.68;;;17.40;72.10;;;;;;6278588;22;20007;-90
2021/09/26 03:35:05;;;;;;;10.93;7.78;;;17.50;72.20;;;;;;6277711;22;20022;-90
2021/09/26 03:40:53;;;;;;;11.93;7.68;;;17.60;72.10;;;;;;6277827;22;20014;-90
2021/09/26 03:46:42;;;;;;;10.60;7.30;;;17.60;71.90;;;;;;6277545;22;20006;-90
2021/09/26 03:52:31;;;;;;;11.90;7.75;;;17.60;72.00;;;;;;6277353;22;20042;-90
2021/09/26 03:58:20;;;;;;;12.50;7.85;;;17.70;72.00;;;;;;6277317;22;20070;-90
2021/09/26 04:08:02;;;;;;;14.20;7.97;;;17.70;72.00;;;;;;6277233;22;20059;-89
2021/09/26 04:13:51;;;;;;;11.07;7.57;;;17.60;71.60;;;;;;6277176;22;20011;-88
2021/09/26 04:19:39;;;;;;;13.88;8.10;;;17.60;71.50;;;;;;6277199;22;20033;-88
2021/09/26 04:25:28;;;;;;;11.23;7.75;;;17.50;71.50;;;;;;6277117;22;20129;-88
2021/09/26 04:31:16;;;;;;;10.82;7.70;;;17.30;71.60;;;;;;6277141;22;20030;-90
2021/09/26 04:37:06;;;;;;;10.30;7.35;;;17.30;71.90;;;;;;6277077;22;20023;-90
2021/09/26 04:42:54;;;;;;;11.52;7.97;;;17.30;72.50;;;;;;6277039;22;20019;-89
2021/09/26 04:48:42;;;;;;;11.57;7.80;;;17.40;72.60;;;;;;6276995;22;20011;-89
2021/09/26 04:54:31;;;;;;;12.00;7.50;;;17.40;72.60;;;;;;6276966;22;20499;-89
2021/09/26 05:00:20;;;;;;;11.43;7.95;;;17.50;72.90;;;;;;6276890;22;20058;-89
2021/09/26 05:10:05;;;;;;;11.38;7.85;;;17.60;72.60;;;;;;6277216;22;20373;-89
2021/09/26 05:15:54;;;;;;;16.58;14.43;;;17.70;72.70;;;;;;6276917;22;20026;-90
2021/09/26 05:21:42;;;;;;;11.18;8.05;;;17.70;72.90;;;;;;6277149;22;20010;-90
2021/09/26 05:27:31;;;;;;;11.57;7.97;;;17.70;72.80;;;;;;6278716;22;20007;-90
2021/09/26 05:33:20;;;;;;;11.05;7.55;;;17.80;72.90;;;;;;6279084;22;20334;-94
2021/09/26 05:39:10;;;;;;;11.02;7.50;;;18.00;73.10;;;;;;6278741;22;20334;-91
2021/09/26 05:44:59;;;;;;;10.23;7.13;;;18.10;73.00;;;;;;6278915;22;20130;-91
2021/09/26 05:50:48;;;;;;;9.95;7.28;;;18.20;72.70;;;;;;6278988;22;20015;-90
2021/09/26 05:56:37;;;;;;;10.05;7.20;;;18.30;72.60;;;;;;6278438;22;20392;-92
2021/09/26 06:18:52;;;;;;;10.95;7.32;;;18.60;72.70;;;;;;6245873;22;20045;31
2021/09/26 06:24:56;;;;;;;11.37;7.37;;;18.80;72.90;;;;;;6261631;23;20047;-86
